sensor_id;sensor_type;location;lat;lon;timestamp;temperature;humidity
1578;DHT22;57623;53.608;10.004;2022-08-19T00:01:15;20.20;99.90
1578;DHT22;57623;53.608;10.004;2022-08-19T00:04:17;20.20;99.90
1578;DHT22;57623;53.608;10.004;2022-08-19T00:07:11;20.20;99.90
1578;DHT22;57623;53.608;10.004;2022-08-19T00:10:00;20.20;99.90
1578;DHT22;57623;53.608;10.004;2022-08-19T00:12:48;20.20;99.90
1578;DHT22;57623;53.608;10.004;2022-08-19T00:15:36;20.20;99.90
1578;DHT22;57623;53.608;10.004;2022-08-19T00:18:35;20.20;99.90
1578;DHT22;57623;53.608;10.004;2022-08-19T00:21:25;20.20;99.90
1578;DHT22;57623;53.608;10.004;2022-08-19T00:24:17;20.20;99.90
1578;DHT22;57623;53.608;10.004;2022-08-19T00:27:07;20.20;99.90
1578;DHT22;57623;53.608;10.004;2022-08-19T00:30:12;20.20;99.90
1578;DHT22;57623;53.608;10.004;2022-08-19T00:33:02;20.20;99.90
1578;DHT22;57623;53.608;10.004;2022-08-19T00:35:51;20.20;99.90
1578;DHT22;57623;53.608;10.004;2022-08-19T00:38:42;20.20;99.90
1578;DHT22;57623;53.608;10.004;2022-08-19T00:41:32;20.20;99.90
1578;DHT22;57623;53.608;10.004;2022-08-19T00:44:25;20.10;99.90
1578;DHT22;57623;53.608;10.004;2022-08-19T00:47:17;20.10;99.90
1578;DHT22;57623;53.608;10.004;2022-08-19T00:50:11;20.10;99.90
1578;DHT22;57623;53.608;10.004;2022-08-19T00:53:01;20.10;99.90
1578;DHT22;57623;53.608;10.004;2022-08-19T00:55:56;20.10;99.90
1578;DHT22;57623;53.608;10.004;2022-08-19T00:58:47;20.10;99.90
1578;DHT22;57623;53.608;10.004;2022-08-19T01:01:37;20.10;99.90
1578;DHT22;57623;53.608;10.004;2022-08-19T01:04:26;20.00;99.90
1578;DHT22;57623;53.608;10.004;2022-08-19T01:07:14;20.00;99.90
1578;DHT22;57623;53.608;10.004;2022-08-19T01:10:11;20.00;99.90
1578;DHT22;57623;53.608;10.004;2022-08-19T01:13:01;20.00;99.90
1578;DHT22;57623;53.608;10.004;2022-08-19T01:16:03;20.00;99.90
1578;DHT22;57623;53.608;10.004;2022-08-19T01:18:51;20.00;99.90
1578;DHT22;57623;53.608;10.004;2022-08-19T01:21:54;20.00;99.90
1578;DHT22;57623;53.608;10.004;2022-08-19T01:25:03;20.00;99.90
1578;DHT22;57623;53.608;10.004;2022-08-19T01:28:01;20.00;99.90
1578;DHT22;57623;53.608;10.004;2022-08-19T01:30:57;20.00;99.90
1578;DHT22;57623;53.608;10.004;2022-08-19T01:33:58;20.00;99.90
1578;DHT22;57623;53.608;10.004;2022-08-19T01:36:47;20.00;99.90
1578;DHT22;57623;53.608;10.004;2022-08-19T01:39:36;20.00;99.90
1578;DHT22;57623;53.608;10.004;2022-08-19T01:42:26;20.00;99.90
1578;DHT22;57623;53.608;10.004;2022-08-19T01:45:19;20.00;99.90
1578;DHT22;57623;53.608;10.004;2022-08-19T01:48:12;20.00;99.90
1578;DHT22;57623;53.608;10.004;2022-08-19T01:51:11;19.90;99.90
1578;DHT22;57623;53.608;10.004;2022-08-19T01:54:00;19.90;99.90
1578;DHT22;57623;53.608;10.004;2022-08-19T01:56:59;19.90;99.90
1578;DHT22;57623;53.608;10.004;2022-08-19T01:59:51;19.90;99.90
1578;DHT22;57623;53.608;10.004;2022-08-19T02:02:42;19.90;99.90
1578;DHT22;57623;53.608;10.004;2022-08-19T02:05:30;19.90;99.90
1578;DHT22;57623;53.608;10.004;2022-08-19T02:08:18;19.80;99.90
1578;DHT22;57623;53.608;10.004;2022-08-19T02:11:08;19.80;99.90
1578;DHT22;57623;53.608;10.004;2022-08-19T02:13:58;19.80;99.90
1578;DHT22;57623;53.608;10.004;2022-08-19T02:16:58;19.80;99.90
1578;DHT22;57623;53.608;10.004;2022-08-19T02:19:52;19.80;99.90
1578;DHT22;57623;53.608;10.004;2022-08-19T02:22:48;19.80;99.90
1578;DHT22;57623;53.608;10.004;2022-08-19T02:25:41;19.80;99.90
1578;DHT22;57623;53.608;10.004;2022-08-19T02:28:33;19.70;99.90
1578;DHT22;57623;53.608;10.004;2022-08-19T02:31:37;19.70;99.90
1578;DHT22;57623;53.608;10.004;2022-08-19T02:34:39;19.70;99.90
1578;DHT22;57623;53.608;10.004;2022-08-19T02:37:28;19.70;99.90
1578;DHT22;57623;53.608;10.004;2022-08-19T02:40:34;19.70;99.90
1578;DHT22;57623;53.608;10.004;2022-08-19T02:43:26;19.70;99.90
1578;DHT22;57623;53.608;10.004;2022-08-19T02:46:23;19.70;99.90
1578;DHT22;57623;53.608;10.004;2022-08-19T02:49:37;19.70;99.90
1578;DHT22;57623;53.608;10.004;2022-08-19T02:52:28;19.60;99.90
1578;DHT22;57623;53.608;10.004;2022-08-19T02:55:16;19.70;99.90
1578;DHT22;57623;53.608;10.004;2022-08-19T02:58:06;19.70;99.90
1578;DHT22;57623;53.608;10.004;2022-08-19T03:01:01;19.60;99.90
1578;DHT22;57623;53.608;10.004;2022-08-19T03:03:49;19.60;99.90
1578;DHT22;57623;53.608;10.004;2022-08-19T03:06:45;19.60;99.90
1578;DHT22;57623;53.608;10.004;2022-08-19T03:09:37;19.60;99.90
1578;DHT22;57623;53.608;10.004;2022-08-19T03:12:26;19.60;99.90
1578;DHT22;57623;53.608;10.004;2022-08-19T03:15:23;19.60;99.90
1578;DHT22;57623;53.608;10.004;2022-08-19T03:18:22;19.60;99.90
1578;DHT22;57623;53.608;10.004;2022-08-19T03:21:32;19.60;99.90
1578;DHT22;57623;53.608;10.004;2022-08-19T03:24:31;19.60;99.90
1578;DHT22;57623;53.608;10.004;2022-08-19T03:27:22;19.60;99.90
1578;DHT22;57623;53.608;10.004;2022-08-19T03:30:16;19.50;99.90
1578;DHT22;57623;53.608;10.004;2022-08-19T03:33:10;19.50;99.90
1578;DHT22;57623;53.608;10.004;2022-08-19T03:36:07;19.50;99.90
1578;DHT22;57623;53.608;10.004;2022-08-19T03:38:58;19.50;99.90
1578;DHT22;57623;53.608;10.004;2022-08-19T03:41:51;19.50;99.90
1578;DHT22;57623;53.608;10.004;2022-08-19T03:44:59;19.40;99.90
1578;DHT22;57623;53.608;10.004;2022-08-19T03:47:56;19.40;99.90
1578;DHT22;57623;53.608;10.004;2022-08-19T03:50:47;19.40;99.90
1578;DHT22;57623;53.608;10.004;2022-08-19T03:53:54;19.40;99.90
1578;DHT22;57623;53.608;10.004;2022-08-19T03:57:01;19.40;99.90
1578;DHT22;57623;53.608;10.004;2022-08-19T03:59:55;19.40;99.90
1578;DHT22;57623;53.608;10.004;2022-08-19T04:03:00;19.40;99.90
1578;DHT22;57623;53.608;10.004;2022-08-19T04:05:51;19.40;99.90
1578;DHT22;57623;53.608;10.004;2022-08-19T04:08:40;19.40;99.90
1578;DHT22;57623;53.608;10.004;2022-08-19T04:11:31;19.30;99.90
1578;DHT22;57623;53.608;10.004;2022-08-19T04:14:32;19.40;99.90
1578;DHT22;57623;53.608;10.004;2022-08-19T04:17:24;19.40;99.90
1578;DHT22;57623;53.608;10.004;2022-08-19T04:20:15;19.30;99.90
1578;DHT22;57623;53.608;10.004;2022-08-19T04:23:08;19.30;99.90
1578;DHT22;57623;53.608;10.004;2022-08-19T04:25:59;19.30;99.90
1578;DHT22;57623;53.608;10.004;2022-08-19T04:28:54;19.30;99.90
1578;DHT22;57623;53.608;10.004;2022-08-19T04:31:44;19.30;99.90
1578;DHT22;57623;53.608;10.004;2022-08-19T04:34:37;19.30;99.90
1578;DHT22;57623;53.608;10.004;2022-08-19T04:37:52;19.30;99.90
1578;DHT22;57623;53.608;10.004;2022-08-19T04:40:42;19.30;99.90
1578;DHT22;57623;53.608;10.004;2022-08-19T04:43:51;19.30;99.90
1578;DHT22;57623;53.608;10.004;2022-08-19T04:46:51;19.30;99.90
1578;DHT22;57623;53.608;10.004;2022-08-19T04:49:41;19.30;99.90
1578;DHT22;57623;53.608;10.004;2022-08-19T04:52:29;19.30;99.90
1578;DHT22;57623;53.608;10.004;2022-08-19T04:55:18;19.30;99.90
1578;DHT22;57623;53.608;10.004;2022-08-19T04:58:09;19.30;99.90
1578;DHT22;57623;53.608;10.004;2022-08-19T05:00:57;19.30;99.90
1578;DHT22;57623;53.608;10.004;2022-08-19T05:03:48;19.40;99.90
1578;DHT22;57623;53.608;10.004;2022-08-19T05:06:47;19.30;99.90
1578;DHT22;57623;53.608;10.004;2022-08-19T05:09:35;19.40;99.90
1578;DHT22;57623;53.608;10.004;2022-08-19T05:12:43;19.40;99.90
1578;DHT22;57623;53.608;10.004;2022-08-19T05:15:32;19.30;99.90
1578;DHT22;57623;53.608;10.004;2022-08-19T05:18:28;19.40;99.90
1578;DHT22;57623;53.608;10.004;2022-08-19T05:21:38;19.40;99.90
1578;DHT22;57623;53.608;10.004;2022-08-19T05:24:47;19.40;99.90
1578;DHT22;57623;53.608;10.004;2022-08-19T05:28:04;19.50;99.90
1578;DHT22;57623;53.608;10.004;2022-08-19T05:30:54;19.50;99.90
1578;DHT22;57623;53.608;10.004;2022-08-19T05:33:42;19.50;99.90
1578;DHT22;57623;53.608;10.004;2022-08-19T05:36:37;19.50;99.90
1578;DHT22;57623;53.608;10.004;2022-08-19T05:39:29;19.50;99.90
1578;DHT22;57623;53.608;10.004;2022-08-19T05:42:17;19.50;99.90
1578;DHT22;57623;53.608;10.004;2022-08-19T05:45:08;19.50;99.90
1578;DHT22;57623;53.608;10.004;2022-08-19T05:47:58;19.50;99.90
1578;DHT22;57623;53.608;10.004;2022-08-19T05:50:52;19.60;99.90
1578;DHT22;57623;53.608;10.004;2022-08-19T05:53:48;19.50;99.90
1578;DHT22;57623;53.608;10.004;2022-08-19T05:56:40;19.50;99.90
1578;DHT22;57623;53.608;10.004;2022-08-19T05:59:32;19.60;99.90
1578;DHT22;57623;53.608;10.004;2022-08-19T06:02:25;19.50;99.90
1578;DHT22;57623;53.608;10.004;2022-08-19T06:05:13;19.50;99.90
1578;DHT22;57623;53.608;10.004;2022-08-19T06:08:02;19.50;99.90
1578;DHT22;57623;53.608;10.004;2022-08-19T06:10:52;19.50;99.90
1578;DHT22;57623;53.608;10.004;2022-08-19T06:13:41;19.50;99.90
1578;DHT22;57623;53.608;10.004;2022-08-19T06:16:31;19.50;99.90
1578;DHT22;57623;53.608;10.004;2022-08-19T06:19:23;19.50;99.90
1578;DHT22;57623;53.608;10.004;2022-08-19T06:22:12;19.50;99.90
1578;DHT22;57623;53.608;10.004;2022-08-19T06:25:00;19.50;99.90
1578;DHT22;57623;53.608;10.004;2022-08-19T06:27:51;19.50;99.90
1578;DHT22;57623;53.608;10.004;2022-08-19T06:31:06;19.50;99.90
1578;DHT22;57623;53.608;10.004;2022-08-19T06:33:54;19.50;99.90
1578;DHT22;57623;53.608;10.004;2022-08-19T06:36:46;19.50;99.90
1578;DHT22;57623;53.608;10.004;2022-08-19T06:39:37;19.60;99.90
1578;DHT22;57623;53.608;10.004;2022-08-19T06:42:26;19.60;99.90
1578;DHT22;57623;53.608;10.004;2022-08-19T06:45:17;19.60;99.90
1578;DHT22;57623;53.608;10.004;2022-08-19T06:48:11;19.60;99.90
1578;DHT22;57623;53.608;10.004;2022-08-19T06:51:00;19.60;99.90
1578;DHT22;57623;53.608;10.004;2022-08-19T06:53:56;19.60;99.90
1578;DHT22;57623;53.608;10.004;2022-08-19T06:56:45;19.60;99.90
1578;DHT22;57623;53.608;10.004;2022-08-19T06:59:33;19.60;99.90
1578;DHT22;57623;53.608;10.004;2022-08-19T07:02:23;19.60;99.90
1578;DHT22;57623;53.608;10.004;2022-08-19T07:05:13;19.60;99.90
1578;DHT22;57623;53.608;10.004;2022-08-19T07:08:02;19.60;99.90
1578;DHT22;57623;53.608;10.004;2022-08-19T07:10:52;19.60;99.90
1578;DHT22;57623;53.608;10.004;2022-08-19T07:13:42;19.60;99.90
1578;DHT22;57623;53.608;10.004;2022-08-19T07:16:30;19.60;99.90
1578;DHT22;57623;53.608;10.004;2022-08-19T07:19:20;19.60;99.90
1578;DHT22;57623;53.608;10.004;2022-08-19T07:22:10;19.60;99.90
1578;DHT22;57623;53.608;10.004;2022-08-19T07:24:59;19.60;99.90
1578;DHT22;57623;53.608;10.004;2022-08-19T07:27:50;19.60;99.90
1578;DHT22;57623;53.608;10.004;2022-08-19T07:30:40;19.70;99.90
1578;DHT22;57623;53.608;10.004;2022-08-19T07:33:29;19.60;99.90
1578;DHT22;57623;53.608;10.004;2022-08-19T07:36:22;19.70;99.90
1578;DHT22;57623;53.608;10.004;2022-08-19T07:39:22;19.70;99.90
1578;DHT22;57623;53.608;10.004;2022-08-19T07:42:12;19.70;99.90
1578;DHT22;57623;53.608;10.004;2022-08-19T07:45:00;19.70;99.90
1578;DHT22;57623;53.608;10.004;2022-08-19T07:47:51;19.80;99.90
1578;DHT22;57623;53.608;10.004;2022-08-19T07:50:45;19.80;99.90
1578;DHT22;57623;53.608;10.004;2022-08-19T07:53:37;19.80;99.90
1578;DHT22;57623;53.608;10.004;2022-08-19T07:56:26;19.80;99.90
1578;DHT22;57623;53.608;10.004;2022-08-19T07:59:14;19.80;99.90
1578;DHT22;57623;53.608;10.004;2022-08-19T08:02:04;19.80;99.90
1578;DHT22;57623;53.608;10.004;2022-08-19T08:04:53;19.70;99.90
1578;DHT22;57623;53.608;10.004;2022-08-19T08:08:01;19.80;99.90
1578;DHT22;57623;53.608;10.004;2022-08-19T08:11:16;19.80;99.90
1578;DHT22;57623;53.608;10.004;2022-08-19T08:14:07;19.90;99.90
1578;DHT22;57623;53.608;10.004;2022-08-19T08:17:16;19.90;99.90
1578;DHT22;57623;53.608;10.004;2022-08-19T08:20:29;19.90;99.90
1578;DHT22;57623;53.608;10.004;2022-08-19T08:23:17;20.00;99.90
1578;DHT22;57623;53.608;10.004;2022-08-19T08:26:13;20.00;99.90
1578;DHT22;57623;53.608;10.004;2022-08-19T08:29:06;20.00;99.90
1578;DHT22;57623;53.608;10.004;2022-08-19T08:31:59;20.00;99.90
1578;DHT22;57623;53.608;10.004;2022-08-19T08:35:00;20.00;99.90
1578;DHT22;57623;53.608;10.004;2022-08-19T08:37:51;20.00;99.90
1578;DHT22;57623;53.608;10.004;2022-08-19T08:40:44;20.00;99.90
1578;DHT22;57623;53.608;10.004;2022-08-19T08:43:38;20.00;99.90
1578;DHT22;57623;53.608;10.004;2022-08-19T08:46:44;20.00;99.90
1578;DHT22;57623;53.608;10.004;2022-08-19T08:49:40;20.10;99.90
1578;DHT22;57623;53.608;10.004;2022-08-19T08:52:33;20.10;99.90
1578;DHT22;57623;53.608;10.004;2022-08-19T08:55:27;20.10;99.90
1578;DHT22;57623;53.608;10.004;2022-08-19T08:58:27;20.10;99.90
1578;DHT22;57623;53.608;10.004;2022-08-19T09:01:17;20.20;99.90
1578;DHT22;57623;53.608;10.004;2022-08-19T09:04:11;20.20;99.90
1578;DHT22;57623;53.608;10.004;2022-08-19T09:07:13;20.20;99.90
1578;DHT22;57623;53.608;10.004;2022-08-19T09:10:29;20.20;99.90
1578;DHT22;57623;53.608;10.004;2022-08-19T09:13:25;20.30;99.90
1578;DHT22;57623;53.608;10.004;2022-08-19T09:16:23;20.30;99.90
1578;DHT22;57623;53.608;10.004;2022-08-19T09:19:15;20.30;99.90
1578;DHT22;57623;53.608;10.004;2022-08-19T09:22:08;20.30;99.90
1578;DHT22;57623;53.608;10.004;2022-08-19T09:24:58;20.30;99.90
1578;DHT22;57623;53.608;10.004;2022-08-19T09:27:46;20.30;99.90
1578;DHT22;57623;53.608;10.004;2022-08-19T09:30:41;20.30;99.90
1578;DHT22;57623;53.608;10.004;2022-08-19T09:33:29;20.40;99.90
1578;DHT22;57623;53.608;10.004;2022-08-19T09:36:21;20.40;99.90
1578;DHT22;57623;53.608;10.004;2022-08-19T09:39:21;20.40;99.90
1578;DHT22;57623;53.608;10.004;2022-08-19T09:42:09;20.40;99.90
1578;DHT22;57623;53.608;10.004;2022-08-19T09:45:06;20.40;99.90
1578;DHT22;57623;53.608;10.004;2022-08-19T09:47:58;20.50;99.90
1578;DHT22;57623;53.608;10.004;2022-08-19T09:50:48;20.50;99.90
1578;DHT22;57623;53.608;10.004;2022-08-19T09:53:39;20.60;99.90
1578;DHT22;57623;53.608;10.004;2022-08-19T09:56:28;20.50;99.90
1578;DHT22;57623;53.608;10.004;2022-08-19T09:59:20;20.50;99.90
1578;DHT22;57623;53.608;10.004;2022-08-19T10:02:09;20.50;99.90
1578;DHT22;57623;53.608;10.004;2022-08-19T10:05:08;20.50;99.90
1578;DHT22;57623;53.608;10.004;2022-08-19T10:08:21;20.50;99.90
1578;DHT22;57623;53.608;10.004;2022-08-19T10:11:14;20.50;99.90
1578;DHT22;57623;53.608;10.004;2022-08-19T10:14:20;20.50;99.90
1578;DHT22;57623;53.608;10.004;2022-08-19T10:17:11;20.50;99.90
1578;DHT22;57623;53.608;10.004;2022-08-19T10:20:07;20.50;99.90
1578;DHT22;57623;53.608;10.004;2022-08-19T10:22:56;20.50;99.90
1578;DHT22;57623;53.608;10.004;2022-08-19T10:25:48;20.50;99.90
1578;DHT22;57623;53.608;10.004;2022-08-19T10:28:39;20.50;99.90
1578;DHT22;57623;53.608;10.004;2022-08-19T10:31:34;20.60;99.90
1578;DHT22;57623;53.608;10.004;2022-08-19T10:34:46;20.60;99.90
1578;DHT22;57623;53.608;10.004;2022-08-19T10:37:43;20.70;99.90
1578;DHT22;57623;53.608;10.004;2022-08-19T10:40:47;20.70;99.90
1578;DHT22;57623;53.608;10.004;2022-08-19T10:43:36;20.70;99.90
1578;DHT22;57623;53.608;10.004;2022-08-19T10:46:27;20.70;99.90
1578;DHT22;57623;53.608;10.004;2022-08-19T10:49:18;20.70;99.90
1578;DHT22;57623;53.608;10.004;2022-08-19T10:52:08;20.70;99.90
1578;DHT22;57623;53.608;10.004;2022-08-19T10:55:20;20.70;99.90
1578;DHT22;57623;53.608;10.004;2022-08-19T10:58:26;20.70;99.90
1578;DHT22;57623;53.608;10.004;2022-08-19T11:01:18;20.70;99.90
1578;DHT22;57623;53.608;10.004;2022-08-19T11:04:10;20.70;99.90
1578;DHT22;57623;53.608;10.004;2022-08-19T11:07:00;20.70;99.90
1578;DHT22;57623;53.608;10.004;2022-08-19T11:09:50;20.70;99.90
1578;DHT22;57623;53.608;10.004;2022-08-19T11:12:39;20.70;99.90
1578;DHT22;57623;53.608;10.004;2022-08-19T11:15:30;20.80;99.90
1578;DHT22;57623;53.608;10.004;2022-08-19T11:18:20;20.80;99.90
1578;DHT22;57623;53.608;10.004;2022-08-19T11:21:12;20.80;99.90
1578;DHT22;57623;53.608;10.004;2022-08-19T11:24:05;20.80;99.90
1578;DHT22;57623;53.608;10.004;2022-08-19T11:27:00;20.90;99.90
1578;DHT22;57623;53.608;10.004;2022-08-19T11:29:49;20.90;99.90
1578;DHT22;57623;53.608;10.004;2022-08-19T11:32:39;21.00;99.90
1578;DHT22;57623;53.608;10.004;2022-08-19T11:35:38;21.10;99.90
1578;DHT22;57623;53.608;10.004;2022-08-19T11:38:28;21.10;99.90
1578;DHT22;57623;53.608;10.004;2022-08-19T11:41:18;21.30;99.90
1578;DHT22;57623;53.608;10.004;2022-08-19T11:44:07;21.40;99.90
1578;DHT22;57623;53.608;10.004;2022-08-19T11:47:02;21.40;99.90
1578;DHT22;57623;53.608;10.004;2022-08-19T11:49:55;21.50;99.90
1578;DHT22;57623;53.608;10.004;2022-08-19T11:52:44;21.50;99.90
1578;DHT22;57623;53.608;10.004;2022-08-19T11:55:36;21.60;99.90
1578;DHT22;57623;53.608;10.004;2022-08-19T11:58:30;21.60;99.90
1578;DHT22;57623;53.608;10.004;2022-08-19T12:01:21;21.60;99.90
1578;DHT22;57623;53.608;10.004;2022-08-19T12:04:10;21.70;99.90
1578;DHT22;57623;53.608;10.004;2022-08-19T12:06:58;21.70;99.90
1578;DHT22;57623;53.608;10.004;2022-08-19T12:09:47;21.70;99.90
1578;DHT22;57623;53.608;10.004;2022-08-19T12:12:37;21.70;99.90
1578;DHT22;57623;53.608;10.004;2022-08-19T12:15:27;21.70;99.90
1578;DHT22;57623;53.608;10.004;2022-08-19T12:18:23;21.70;99.90
1578;DHT22;57623;53.608;10.004;2022-08-19T12:21:14;21.70;99.90
1578;DHT22;57623;53.608;10.004;2022-08-19T12:24:08;21.70;99.90
1578;DHT22;57623;53.608;10.004;2022-08-19T12:26:56;21.80;99.90
1578;DHT22;57623;53.608;10.004;2022-08-19T12:29:52;21.80;99.90
1578;DHT22;57623;53.608;10.004;2022-08-19T12:32:40;21.90;99.90
1578;DHT22;57623;53.608;10.004;2022-08-19T12:35:28;22.10;99.90
1578;DHT22;57623;53.608;10.004;2022-08-19T12:38:18;22.20;99.90
1578;DHT22;57623;53.608;10.004;2022-08-19T12:41:10;22.40;99.90
1578;DHT22;57623;53.608;10.004;2022-08-19T12:44:02;22.60;99.90
1578;DHT22;57623;53.608;10.004;2022-08-19T12:46:55;22.70;99.90
1578;DHT22;57623;53.608;10.004;2022-08-19T12:49:43;22.80;99.90
1578;DHT22;57623;53.608;10.004;2022-08-19T12:52:41;23.00;99.90
1578;DHT22;57623;53.608;10.004;2022-08-19T12:55:31;23.30;99.90
1578;DHT22;57623;53.608;10.004;2022-08-19T12:58:19;23.40;99.90
1578;DHT22;57623;53.608;10.004;2022-08-19T13:01:15;23.50;99.90
1578;DHT22;57623;53.608;10.004;2022-08-19T13:04:10;23.60;99.90
1578;DHT22;57623;53.608;10.004;2022-08-19T13:07:02;23.60;99.90
1578;DHT22;57623;53.608;10.004;2022-08-19T13:09:52;23.60;99.90
1578;DHT22;57623;53.608;10.004;2022-08-19T13:12:41;23.60;99.90
1578;DHT22;57623;53.608;10.004;2022-08-19T13:15:33;23.60;99.90
1578;DHT22;57623;53.608;10.004;2022-08-19T13:18:21;23.50;99.90
1578;DHT22;57623;53.608;10.004;2022-08-19T13:21:14;23.50;99.90
1578;DHT22;57623;53.608;10.004;2022-08-19T13:24:04;23.40;99.90
1578;DHT22;57623;53.608;10.004;2022-08-19T13:26:56;23.40;99.90
1578;DHT22;57623;53.608;10.004;2022-08-19T13:29:49;23.40;99.90
1578;DHT22;57623;53.608;10.004;2022-08-19T13:32:55;23.50;99.90
1578;DHT22;57623;53.608;10.004;2022-08-19T13:36:02;23.50;99.90
1578;DHT22;57623;53.608;10.004;2022-08-19T13:38:58;23.60;99.90
1578;DHT22;57623;53.608;10.004;2022-08-19T13:41:48;23.60;99.90
1578;DHT22;57623;53.608;10.004;2022-08-19T13:44:37;23.60;99.90
1578;DHT22;57623;53.608;10.004;2022-08-19T13:47:28;23.60;99.90
1578;DHT22;57623;53.608;10.004;2022-08-19T13:50:21;23.60;99.90
1578;DHT22;57623;53.608;10.004;2022-08-19T13:53:10;23.50;99.90
1578;DHT22;57623;53.608;10.004;2022-08-19T13:56:06;23.50;99.90
1578;DHT22;57623;53.608;10.004;2022-08-19T13:58:55;23.50;99.90
1578;DHT22;57623;53.608;10.004;2022-08-19T14:01:45;23.40;99.90
1578;DHT22;57623;53.608;10.004;2022-08-19T14:04:45;23.40;99.90
1578;DHT22;57623;53.608;10.004;2022-08-19T14:07:33;23.40;99.90
1578;DHT22;57623;53.608;10.004;2022-08-19T14:10:26;23.30;99.90
1578;DHT22;57623;53.608;10.004;2022-08-19T14:13:18;23.30;99.90
1578;DHT22;57623;53.608;10.004;2022-08-19T14:16:08;23.20;99.90
1578;DHT22;57623;53.608;10.004;2022-08-19T14:18:57;23.20;99.90
1578;DHT22;57623;53.608;10.004;2022-08-19T14:21:48;23.20;99.90
1578;DHT22;57623;53.608;10.004;2022-08-19T14:24:38;23.10;99.90
1578;DHT22;57623;53.608;10.004;2022-08-19T14:27:34;23.10;99.90
1578;DHT22;57623;53.608;10.004;2022-08-19T14:30:27;23.10;99.90
1578;DHT22;57623;53.608;10.004;2022-08-19T14:33:15;23.10;99.90
1578;DHT22;57623;53.608;10.004;2022-08-19T14:36:04;23.10;99.90
1578;DHT22;57623;53.608;10.004;2022-08-19T14:38:53;23.10;99.90
1578;DHT22;57623;53.608;10.004;2022-08-19T14:41:41;23.10;99.90
1578;DHT22;57623;53.608;10.004;2022-08-19T14:44:29;23.10;99.90
1578;DHT22;57623;53.608;10.004;2022-08-19T14:47:24;23.20;99.90
1578;DHT22;57623;53.608;10.004;2022-08-19T14:50:20;23.20;99.90
1578;DHT22;57623;53.608;10.004;2022-08-19T14:53:09;23.20;99.90
1578;DHT22;57623;53.608;10.004;2022-08-19T14:55:59;23.20;99.90
1578;DHT22;57623;53.608;10.004;2022-08-19T14:58:49;23.20;99.90
1578;DHT22;57623;53.608;10.004;2022-08-19T15:01:40;23.10;99.90
1578;DHT22;57623;53.608;10.004;2022-08-19T15:04:30;23.10;99.90
1578;DHT22;57623;53.608;10.004;2022-08-19T15:07:19;23.10;99.90
1578;DHT22;57623;53.608;10.004;2022-08-19T15:10:13;23.10;99.90
1578;DHT22;57623;53.608;10.004;2022-08-19T15:13:06;23.10;99.90
1578;DHT22;57623;53.608;10.004;2022-08-19T15:15:55;23.10;99.90
1578;DHT22;57623;53.608;10.004;2022-08-19T15:18:44;23.10;99.90
1578;DHT22;57623;53.608;10.004;2022-08-19T15:21:35;23.10;99.90
1578;DHT22;57623;53.608;10.004;2022-08-19T15:24:24;23.10;99.90
1578;DHT22;57623;53.608;10.004;2022-08-19T15:27:13;23.10;99.90
1578;DHT22;57623;53.608;10.004;2022-08-19T15:30:01;23.10;99.90
1578;DHT22;57623;53.608;10.004;2022-08-19T15:32:50;23.10;99.90
1578;DHT22;57623;53.608;10.004;2022-08-19T15:35:39;23.10;99.90
1578;DHT22;57623;53.608;10.004;2022-08-19T15:38:30;23.10;99.90
1578;DHT22;57623;53.608;10.004;2022-08-19T15:41:27;23.20;99.90
1578;DHT22;57623;53.608;10.004;2022-08-19T15:44:19;23.30;99.90
1578;DHT22;57623;53.608;10.004;2022-08-19T15:47:08;23.30;99.90
1578;DHT22;57623;53.608;10.004;2022-08-19T15:49:57;23.40;99.90
1578;DHT22;57623;53.608;10.004;2022-08-19T15:52:48;23.40;99.90
1578;DHT22;57623;53.608;10.004;2022-08-19T15:55:44;23.40;99.90
1578;DHT22;57623;53.608;10.004;2022-08-19T15:58:36;23.50;99.90
1578;DHT22;57623;53.608;10.004;2022-08-19T16:01:43;23.60;99.90
1578;DHT22;57623;53.608;10.004;2022-08-19T16:04:50;23.60;99.90
1578;DHT22;57623;53.608;10.004;2022-08-19T16:07:56;23.60;99.90
1578;DHT22;57623;53.608;10.004;2022-08-19T16:10:46;23.60;99.90
1578;DHT22;57623;53.608;10.004;2022-08-19T16:13:38;23.60;99.90
1578;DHT22;57623;53.608;10.004;2022-08-19T16:16:31;23.60;99.90
1578;DHT22;57623;53.608;10.004;2022-08-19T16:19:20;23.60;99.90
1578;DHT22;57623;53.608;10.004;2022-08-19T16:22:10;23.50;99.90
1578;DHT22;57623;53.608;10.004;2022-08-19T16:24:58;23.50;99.90
1578;DHT22;57623;53.608;10.004;2022-08-19T16:27:52;23.50;99.90
1578;DHT22;57623;53.608;10.004;2022-08-19T16:30:57;23.40;99.90
1578;DHT22;57623;53.608;10.004;2022-08-19T16:33:46;23.50;99.90
1578;DHT22;57623;53.608;10.004;2022-08-19T16:36:38;23.50;99.90
1578;DHT22;57623;53.608;10.004;2022-08-19T16:39:28;23.50;99.90
1578;DHT22;57623;53.608;10.004;2022-08-19T16:42:16;23.50;99.90
1578;DHT22;57623;53.608;10.004;2022-08-19T16:45:06;23.50;99.90
1578;DHT22;57623;53.608;10.004;2022-08-19T16:47:58;23.50;99.90
1578;DHT22;57623;53.608;10.004;2022-08-19T16:50:49;23.60;99.90
1578;DHT22;57623;53.608;10.004;2022-08-19T16:53:44;23.60;99.90
1578;DHT22;57623;53.608;10.004;2022-08-19T16:56:35;23.60;99.90
1578;DHT22;57623;53.608;10.004;2022-08-19T16:59:24;23.70;99.90
1578;DHT22;57623;53.608;10.004;2022-08-19T17:02:14;23.80;99.90
1578;DHT22;57623;53.608;10.004;2022-08-19T17:05:02;23.80;99.90
1578;DHT22;57623;53.608;10.004;2022-08-19T17:07:51;23.80;99.90
1578;DHT22;57623;53.608;10.004;2022-08-19T17:10:40;23.80;99.90
1578;DHT22;57623;53.608;10.004;2022-08-19T17:13:51;23.80;99.90
1578;DHT22;57623;53.608;10.004;2022-08-19T17:16:39;23.80;99.90
1578;DHT22;57623;53.608;10.004;2022-08-19T17:19:32;23.80;99.90
1578;DHT22;57623;53.608;10.004;2022-08-19T17:22:23;23.70;99.90
1578;DHT22;57623;53.608;10.004;2022-08-19T17:25:11;23.70;99.90
1578;DHT22;57623;53.608;10.004;2022-08-19T17:28:06;23.70;99.90
1578;DHT22;57623;53.608;10.004;2022-08-19T17:30:55;23.60;99.90
1578;DHT22;57623;53.608;10.004;2022-08-19T17:33:46;23.60;99.90
1578;DHT22;57623;53.608;10.004;2022-08-19T17:36:36;23.60;99.90
1578;DHT22;57623;53.608;10.004;2022-08-19T17:39:25;23.50;99.90
1578;DHT22;57623;53.608;10.004;2022-08-19T17:42:13;23.50;99.90
1578;DHT22;57623;53.608;10.004;2022-08-19T17:45:02;23.40;99.90
1578;DHT22;57623;53.608;10.004;2022-08-19T17:47:50;23.40;99.90
1578;DHT22;57623;53.608;10.004;2022-08-19T17:50:40;23.30;99.90
1578;DHT22;57623;53.608;10.004;2022-08-19T17:53:34;23.20;99.90
1578;DHT22;57623;53.608;10.004;2022-08-19T17:56:24;23.20;99.90
1578;DHT22;57623;53.608;10.004;2022-08-19T17:59:15;23.10;99.90
1578;DHT22;57623;53.608;10.004;2022-08-19T18:02:04;23.10;99.90
1578;DHT22;57623;53.608;10.004;2022-08-19T18:04:52;23.10;99.90
1578;DHT22;57623;53.608;10.004;2022-08-19T18:07:43;23.00;99.90
1578;DHT22;57623;53.608;10.004;2022-08-19T18:10:35;22.90;99.90
1578;DHT22;57623;53.608;10.004;2022-08-19T18:13:23;22.90;99.90